CPC2 weather

Port Carling Airport
Port Carling, Ontario, Canada

Public forecast

Using degrees Celsius for public forecast. Weather courtesy of forecast.io.

METAR (pilot weather report)

Closest report is Muskoka Airport, 14.4 nm (26.6 km) ESE. Retrieved 2019/05/21 14:00 UTC (26 minutes ago):

CYQA 211400Z AUTO 31009G15KT 270V340 9SM SCT029 11/04 A3010 RMK SLP202

TAF (pilot weather forecast)

Closest forecast is Muskoka Airport, 14.4 nm (26.6 km) ESE. Retrieved 2019/05/21 14:39 UTC (0 seconds ago):

TAF CYQA 211338Z 2114/2202 31010G20KT P6SM FEW025 TEMPO 2114/2116 BKN020 FM211600 32010G20KT P6SM SCT030 TEMPO 2116/2120 BKN030 BECMG 2122/2124 32008KT FM220100 VRB03KT P6SM SKC RMK FCST BASED ON AUTO OBS. NXT FCST BY 212000Z